Time;durP1;ratioP1;P1;durP2;ratioP2;P2;SDS_P1;SDS_P2;PMS_P1;PMS_P2;Temp;Humidity;BMP_temperature;BMP_pressure;BME280_temperature;BME280_humidity;BME280_pressure;Samples;Min_cycle;Max_cycle;Signal;HPM_P1;HPM_P2
2023/01/13 00:02:12;;;;;;;1999.90;999.90;;;10.70;99.90;;;;;;5027151;28;20431;-71
2023/01/13 00:04:38;;;;;;;1999.90;999.90;;;10.70;99.90;;;;;;5027709;28;20503;-72
2023/01/13 00:07:05;;;;;;;1999.90;999.90;;;10.70;99.90;;;;;;5033767;28;20439;-70
2023/01/13 00:09:33;;;;;;;1999.90;999.90;;;10.60;99.90;;;;;;5031545;28;20489;-73
2023/01/13 00:12:00;;;;;;;1999.90;999.90;;;10.60;99.90;;;;;;5030472;28;20476;-73
2023/01/13 00:14:28;;;;;;;1999.90;999.90;;;10.70;99.90;;;;;;5035218;28;20503;-74
2023/01/13 00:16:55;;;;;;;1999.90;999.90;;;10.70;99.90;;;;;;5031414;28;20442;-73
2023/01/13 00:19:21;;;;;;;1999.90;999.90;;;10.70;99.90;;;;;;5034284;28;20914;-71
2023/01/13 00:21:48;;;;;;;1999.90;999.90;;;10.70;99.90;;;;;;5036559;28;20436;-73
2023/01/13 00:24:15;;;;;;;1999.90;999.90;;;10.70;99.90;;;;;;5056990;22;20563;-68
2023/01/13 00:26:43;;;;;;;1999.90;999.90;;;10.70;99.90;;;;;;5044759;28;20425;-68
2023/01/13 00:29:10;;;;;;;1999.90;999.90;;;10.70;99.90;;;;;;5051820;28;20429;-69
2023/01/13 00:31:36;;;;;;;1999.90;999.90;;;10.70;99.90;;;;;;5050987;28;20855;-68
2023/01/13 00:34:03;;;;;;;1999.90;999.90;;;10.70;99.90;;;;;;5052029;28;20428;-68
2023/01/13 00:36:30;;;;;;;1999.90;999.90;;;10.80;99.90;;;;;;5053048;28;20486;-71
2023/01/13 00:38:57;;;;;;;1999.90;999.90;;;10.80;99.90;;;;;;5054188;28;20431;-69
2023/01/13 00:41:25;;;;;;;1999.90;999.90;;;10.80;99.90;;;;;;5052763;28;20429;-69
2023/01/13 00:43:52;;;;;;;1999.90;999.90;;;10.80;99.90;;;;;;5052402;28;20855;-69
2023/01/13 00:46:21;;;;;;;1999.90;999.90;;;10.70;99.90;;;;;;5053201;28;20435;-67
2023/01/13 00:48:48;;;;;;;1999.90;999.90;;;10.60;99.90;;;;;;5052754;28;20512;-68
2023/01/13 00:51:16;;;;;;;1999.90;999.90;;;10.60;99.90;;;;;;5053644;28;20437;-68
2023/01/13 00:53:44;;;;;;;1999.90;999.90;;;10.70;99.90;;;;;;5054102;28;20514;-69
2023/01/13 00:56:14;;;;;;;1999.90;999.90;;;10.70;99.90;;;;;;5052979;28;21119;-68
2023/01/13 00:58:42;;;;;;;1999.90;999.90;;;10.60;99.90;;;;;;5052367;28;20491;-68
2023/01/13 01:01:12;;;;;;;1999.90;999.90;;;10.60;99.90;;;;;;5052504;28;20445;-68
2023/01/13 01:03:39;;;;;;;1999.90;999.90;;;10.80;99.90;;;;;;5050160;28;20491;-67
2023/01/13 01:06:08;;;;;;;1999.90;999.90;;;10.80;99.90;;;;;;5048129;28;20490;-70
2023/01/13 01:08:35;;;;;;;1999.90;999.90;;;10.70;99.90;;;;;;5048775;28;20433;-68
2023/01/13 01:11:03;;;;;;;1999.90;999.90;;;10.70;99.90;;;;;;5053450;28;20486;-68
2023/01/13 01:13:29;;;;;;;1999.90;999.90;;;10.80;99.90;;;;;;5053570;28;20429;-68
2023/01/13 01:15:56;;;;;;;1999.90;999.90;;;10.80;99.90;;;;;;5052244;28;20795;-68
2023/01/13 01:18:24;;;;;;;1999.90;999.90;;;10.80;99.90;;;;;;5053109;28;20487;-68
2023/01/13 01:20:51;;;;;;;1999.90;999.90;;;10.70;99.90;;;;;;5052560;28;20437;-68
2023/01/13 01:23:17;;;;;;;1999.90;999.90;;;10.70;99.90;;;;;;5052255;28;20543;-71
2023/01/13 01:25:44;;;;;;;1999.90;999.90;;;10.60;99.90;;;;;;5051712;28;20440;-68
2023/01/13 01:28:10;;;;;;;1999.90;999.90;;;10.60;99.90;;;;;;5049991;28;20440;-67
2023/01/13 01:30:39;;;;;;;1999.90;999.90;;;10.60;99.90;;;;;;5052433;28;20429;-69
2023/01/13 01:33:05;;;;;;;1999.90;999.90;;;10.60;99.90;;;;;;5052120;28;20423;-67
2023/01/13 01:35:33;;;;;;;1999.90;999.90;;;10.70;99.90;;;;;;5052229;28;20510;-68
2023/01/13 01:38:00;;;;;;;1999.90;999.90;;;10.70;99.90;;;;;;5054958;28;20432;-68
2023/01/13 01:40:27;;;;;;;1999.90;999.90;;;10.70;99.90;;;;;;5051197;28;20484;-67
2023/01/13 01:45:38;;;;;;;1999.90;999.90;;;10.80;99.90;;;;;;5051879;28;20448;-68
2023/01/13 01:48:06;;;;;;;1999.90;999.90;;;10.80;99.90;;;;;;5048099;28;20462;-66
2023/01/13 01:50:35;;;;;;;1999.90;999.90;;;10.70;99.90;;;;;;5051905;28;21060;-68
2023/01/13 01:53:07;;;;;;;1999.90;999.90;;;10.80;99.90;;;;;;5053392;28;20427;-68
2023/01/13 01:55:35;;;;;;;1999.90;999.90;;;10.80;99.90;;;;;;5051969;28;20444;-68
2023/01/13 01:58:06;;;;;;;1999.90;999.90;;;10.80;99.90;;;;;;5046243;28;20417;-71
2023/01/13 02:00:33;;;;;;;1999.90;999.90;;;10.80;99.90;;;;;;5051527;28;20533;-68
2023/01/13 02:03:00;;;;;;;1999.90;999.90;;;10.80;99.90;;;;;;5052095;28;20501;-68
2023/01/13 02:05:27;;;;;;;1999.90;999.90;;;10.80;99.90;;;;;;5051756;28;20506;-68
2023/01/13 02:07:58;;;;;;;1999.90;999.90;;;10.90;99.90;;;;;;5051371;28;20430;-68
2023/01/13 02:10:27;;;;;;;1999.90;999.90;;;10.80;99.90;;;;;;5051616;28;20490;-70
2023/01/13 02:12:57;;;;;;;1999.90;999.90;;;10.80;99.90;;;;;;5051703;28;20506;-68
2023/01/13 02:15:32;;;;;;;1999.90;999.90;;;10.90;99.90;;;;;;5051555;28;20433;-68
2023/01/13 02:18:14;;;;;;;1999.90;999.90;;;10.80;99.90;;;;;;5051481;28;20442;-68
2023/01/13 02:20:55;;;;;;;1999.90;999.90;;;10.80;99.90;;;;;;5051181;28;20483;-69
2023/01/13 02:27:31;;;;;;;1999.90;999.90;;;10.80;99.90;;;;;;4983274;28;20453;-68
2023/01/13 02:33:10;;;;;;;1999.90;999.90;;;11.00;99.90;;;;;;5048476;28;20436;-69
2023/01/13 02:35:44;;;;;;;1999.90;999.90;;;10.90;99.90;;;;;;5048725;28;20766;-69
2023/01/13 02:38:14;;;;;;;1999.90;999.90;;;11.00;99.90;;;;;;5049963;28;20491;-68
2023/01/13 02:40:47;;;;;;;1999.90;999.90;;;11.00;99.90;;;;;;5050656;28;20432;-68
2023/01/13 02:46:09;;;;;;;1999.90;999.90;;;11.00;99.90;;;;;;5047962;28;20432;-68
2023/01/13 02:48:37;;;;;;;1999.90;999.90;;;11.00;99.90;;;;;;5051565;28;20491;-68
2023/01/13 02:51:07;;;;;;;1999.90;999.90;;;11.00;99.90;;;;;;5051902;28;21456;-68
2023/01/13 02:53:38;;;;;;;1999.90;999.90;;;11.10;99.90;;;;;;5050739;28;20897;-68
2023/01/13 02:56:07;;;;;;;1999.90;999.90;;;11.20;99.90;;;;;;5046770;28;20475;-67
2023/01/13 02:58:37;;;;;;;1999.90;999.90;;;11.30;99.90;;;;;;5047514;28;20431;-68
2023/01/13 03:01:05;;;;;;;1999.90;999.90;;;11.40;99.90;;;;;;5050995;28;20425;-69
2023/01/13 03:03:32;;;;;;;1999.90;999.90;;;11.40;99.90;;;;;;5050270;28;20483;-69
2023/01/13 03:06:11;;;;;;;1999.90;999.90;;;11.30;99.90;;;;;;5050519;28;20492;-68
2023/01/13 03:08:46;;;;;;;1999.90;999.90;;;11.20;99.90;;;;;;5048906;28;20440;-68
2023/01/13 03:11:14;;;;;;;1999.90;999.90;;;11.30;99.90;;;;;;5050319;28;21037;-68
2023/01/13 03:14:08;;;;;;;1999.90;999.90;;;11.20;99.90;;;;;;5051203;28;20490;-66
2023/01/13 03:16:52;;;;;;;1999.90;999.90;;;11.20;99.90;;;;;;5049095;28;20909;-67
2023/01/13 03:19:29;;;;;;;1999.90;999.90;;;11.30;99.90;;;;;;5047491;28;20433;-68
2023/01/13 03:21:59;;;;;;;1999.90;999.90;;;11.20;99.90;;;;;;5050869;28;20430;-68
2023/01/13 03:24:33;;;;;;;1999.90;999.90;;;11.20;99.90;;;;;;5047970;28;20840;-66
2023/01/13 03:27:06;;;;;;;1999.90;999.90;;;11.20;99.90;;;;;;5050254;28;20441;-68
2023/01/13 03:29:37;;;;;;;1999.90;999.90;;;11.20;99.90;;;;;;5050664;28;20485;-67
2023/01/13 03:32:11;;;;;;;1999.90;999.90;;;11.10;99.90;;;;;;5050167;28;20437;-69
2023/01/13 03:34:44;;;;;;;1999.90;999.90;;;11.10;99.90;;;;;;5050933;28;20463;-69
2023/01/13 03:37:14;;;;;;;1999.90;999.90;;;11.00;99.90;;;;;;5048694;28;20550;-66
2023/01/13 03:39:46;;;;;;;1999.90;999.90;;;10.90;99.90;;;;;;5050132;28;20982;-67
2023/01/13 03:42:18;;;;;;;1999.90;999.90;;;10.90;99.90;;;;;;5051223;28;20435;-69
2023/01/13 03:44:49;;;;;;;1999.90;999.90;;;10.90;99.90;;;;;;5046382;28;20433;-66
2023/01/13 03:47:23;;;;;;;1999.90;999.90;;;10.90;99.90;;;;;;5049884;28;20440;-67
2023/01/13 03:49:54;;;;;;;1999.90;999.90;;;10.90;99.90;;;;;;5046831;28;20529;-67
2023/01/13 03:52:26;;;;;;;1999.90;999.90;;;10.90;99.90;;;;;;5050066;28;20444;-68
2023/01/13 03:54:57;;;;;;;1999.90;999.90;;;11.00;99.90;;;;;;5050111;28;20433;-67
2023/01/13 03:57:30;;;;;;;1999.90;999.90;;;11.00;99.90;;;;;;5048921;28;20425;-69
2023/01/13 04:00:02;;;;;;;1999.90;999.90;;;11.00;99.90;;;;;;5050844;28;20429;-69
2023/01/13 04:02:42;;;;;;;1999.90;999.90;;;10.90;99.90;;;;;;5049813;28;20433;-68
2023/01/13 04:05:10;;;;;;;1999.90;999.90;;;10.90;99.90;;;;;;5049884;28;20425;-69
2023/01/13 04:07:46;;;;;;;1999.90;999.90;;;10.90;99.90;;;;;;5048920;28;20433;-69
2023/01/13 04:10:16;;;;;;;1999.90;999.90;;;10.80;99.90;;;;;;5044316;28;20438;-69
2023/01/13 04:13:03;;;;;;;1999.90;999.90;;;10.60;99.90;;;;;;5050343;28;20429;-72
2023/01/13 04:15:34;;;;;;;1999.90;999.90;;;10.50;99.90;;;;;;5048133;28;20429;-71
2023/01/13 04:18:13;;;;;;;1999.90;999.90;;;10.30;99.90;;;;;;5050623;28;20452;-70
2023/01/13 04:20:41;;;;;;;1999.90;999.90;;;10.40;99.90;;;;;;5048078;28;20441;-69
2023/01/13 04:23:08;;;;;;;1999.90;999.90;;;10.50;99.90;;;;;;5049787;28;20437;-67
2023/01/13 04:25:35;;;;;;;1999.90;999.90;;;10.40;99.90;;;;;;5049776;28;20463;-68
2023/01/13 04:28:02;;;;;;;1999.90;999.90;;;10.40;99.90;;;;;;5050181;28;20915;-69
2023/01/13 04:30:29;;;;;;;1999.90;999.90;;;10.40;99.90;;;;;;5050276;28;20429;-68
2023/01/13 04:32:55;;;;;;;1999.90;999.90;;;10.40;99.90;;;;;;5048537;28;20433;-71
2023/01/13 04:35:24;;;;;;;1999.90;999.90;;;10.30;99.90;;;;;;5050056;28;20433;-69
2023/01/13 04:37:51;;;;;;;1999.90;999.90;;;10.40;99.90;;;;;;5049195;28;20448;-69
2023/01/13 04:40:17;;;;;;;1999.90;999.90;;;10.30;99.90;;;;;;5049371;28;20432;-69
2023/01/13 04:42:44;;;;;;;1999.90;999.90;;;10.20;99.90;;;;;;5048057;28;20486;-69
2023/01/13 04:45:11;;;;;;;1999.90;999.90;;;10.20;99.90;;;;;;5049403;28;20429;-69
2023/01/13 04:47:39;;;;;;;1999.90;999.90;;;10.20;99.90;;;;;;5049394;28;20909;-69
2023/01/13 04:50:06;;;;;;;1999.90;999.90;;;10.10;99.90;;;;;;5050558;28;20871;-68
2023/01/13 04:52:34;;;;;;;1999.90;999.90;;;9.90;99.90;;;;;;5052834;28;20447;-71
2023/01/13 04:55:00;;;;;;;1999.90;999.90;;;9.70;99.90;;;;;;5052669;28;20433;-70
2023/01/13 04:57:27;;;;;;;1999.90;999.90;;;9.70;99.90;;;;;;5052519;28;20433;-71
2023/01/13 04:59:54;;;;;;;1999.90;999.90;;;9.70;99.90;;;;;;5052762;28;20986;-71
2023/01/13 05:02:20;;;;;;;1999.90;999.90;;;9.60;99.90;;;;;;5051386;28;20491;-71
2023/01/13 05:04:48;;;;;;;1999.90;999.90;;;9.60;99.90;;;;;;5052658;28;20421;-72
2023/01/13 05:07:16;;;;;;;1999.90;999.90;;;9.60;99.90;;;;;;5052481;28;20834;-69
2023/01/13 05:09:44;;;;;;;1999.90;999.90;;;9.60;99.90;;;;;;5050768;28;20936;-71
2023/01/13 05:17:56;;;;;;;1999.90;999.90;;;9.50;99.90;;;;;;5006611;28;20428;-71
2023/01/13 05:20:23;;;;;;;1999.90;999.90;;;9.60;99.90;;;;;;5031787;28;20479;-73
2023/01/13 05:25:39;;;;;;;1999.90;999.90;;;9.60;99.90;;;;;;5047649;28;20476;-71
2023/01/13 05:28:06;;;;;;;1999.90;999.90;;;9.60;99.90;;;;;;5050851;28;20555;-71
2023/01/13 05:30:37;;;;;;;1999.90;999.90;;;9.60;99.90;;;;;;5052616;28;20479;-70
2023/01/13 05:33:04;;;;;;;1999.90;999.90;;;9.50;99.90;;;;;;5052426;28;20491;-71
2023/01/13 05:35:31;;;;;;;1999.90;999.90;;;9.50;99.90;;;;;;5052457;28;20425;-69
2023/01/13 05:37:57;;;;;;;1999.90;999.90;;;9.40;99.90;;;;;;5051668;28;20436;-68
2023/01/13 05:43:21;;;;;;;1999.90;999.90;;;9.40;99.90;;;;;;5049705;28;20420;-68
2023/01/13 05:45:50;;;;;;;1999.90;999.90;;;9.40;99.90;;;;;;5049745;28;20433;-68
2023/01/13 05:48:18;;;;;;;1999.90;999.90;;;9.30;99.90;;;;;;5052870;28;20911;-69
2023/01/13 05:50:45;;;;;;;1999.90;999.90;;;9.30;99.90;;;;;;5051637;28;20549;-71
2023/01/13 05:53:13;;;;;;;1999.90;999.90;;;9.30;99.90;;;;;;5051804;28;20432;-69
2023/01/13 05:55:40;;;;;;;1999.90;999.90;;;9.20;99.90;;;;;;5051108;28;21125;-68
2023/01/13 05:58:07;;;;;;;1999.90;999.90;;;9.20;99.90;;;;;;5051912;28;20951;-68
2023/01/13 06:00:36;;;;;;;1999.90;999.90;;;9.20;99.90;;;;;;5052110;28;21053;-68
2023/01/13 06:03:03;;;;;;;1999.90;999.90;;;9.10;99.90;;;;;;5052271;28;20974;-69
2023/01/13 06:05:30;;;;;;;1999.90;999.90;;;9.10;99.90;;;;;;5051672;28;20492;-69
2023/01/13 06:07:57;;;;;;;1999.90;999.90;;;9.10;99.90;;;;;;5050482;28;20921;-70
2023/01/13 06:10:24;;;;;;;1999.90;999.90;;;9.10;99.90;;;;;;5052318;28;20436;-68
2023/01/13 06:12:50;;;;;;;1999.90;999.90;;;9.10;99.90;;;;;;5051276;28;20429;-69
2023/01/13 06:15:17;;;;;;;1999.90;999.90;;;9.10;99.90;;;;;;5052547;28;21476;-70
2023/01/13 06:17:45;;;;;;;1999.90;999.90;;;9.10;99.90;;;;;;5047567;28;20494;-67
2023/01/13 06:20:13;;;;;;;1999.90;999.90;;;9.10;99.90;;;;;;5049164;28;20436;-68
2023/01/13 06:22:42;;;;;;;1999.90;999.90;;;9.10;99.90;;;;;;5051617;28;20829;-71
2023/01/13 06:25:14;;;;;;;1999.90;999.90;;;9.10;99.90;;;;;;5051290;28;20483;-69
2023/01/13 06:27:41;;;;;;;1999.90;999.90;;;9.10;99.90;;;;;;5051494;28;20491;-67
2023/01/13 06:30:10;;;;;;;1999.90;999.90;;;9.00;99.90;;;;;;5051251;28;21686;-71
2023/01/13 06:32:41;;;;;;;1999.90;999.90;;;9.00;99.90;;;;;;5050163;28;20851;-70
2023/01/13 06:35:14;;;;;;;1999.90;999.90;;;9.10;99.90;;;;;;5049921;28;20437;-69
2023/01/13 06:37:43;;;;;;;1999.90;999.90;;;9.10;99.90;;;;;;5050770;28;20983;-68
2023/01/13 06:40:13;;;;;;;1999.90;999.90;;;9.10;99.90;;;;;;5047419;28;20507;-67
2023/01/13 06:45:30;;;;;;;1999.90;999.90;;;9.20;99.90;;;;;;5032398;28;20454;-68
2023/01/13 06:47:58;;;;;;;1999.90;999.90;;;9.10;99.90;;;;;;5051401;28;20437;-68
2023/01/13 06:50:27;;;;;;;1999.90;999.90;;;9.20;99.90;;;;;;5050534;28;22107;-67
2023/01/13 06:52:54;;;;;;;1999.90;999.90;;;9.20;99.90;;;;;;5050899;28;20455;-69
2023/01/13 06:55:21;;;;;;;1999.90;999.90;;;9.10;99.90;;;;;;5047277;28;20421;-69
2023/01/13 06:57:52;;;;;;;1999.90;999.90;;;9.10;99.90;;;;;;5049345;28;20836;-67
2023/01/13 07:00:20;;;;;;;1999.90;999.90;;;9.00;99.90;;;;;;5051757;28;20544;-69
2023/01/13 07:02:46;;;;;;;1999.90;999.90;;;9.10;99.90;;;;;;5050907;28;20916;-71
2023/01/13 07:05:13;;;;;;;1999.90;999.90;;;9.10;99.90;;;;;;5050973;28;20437;-67
2023/01/13 07:07:42;;;;;;;1999.90;999.90;;;9.00;99.90;;;;;;5050551;28;20479;-67
2023/01/13 07:10:11;;;;;;;1999.90;999.90;;;8.90;99.90;;;;;;5049764;28;20519;-66
2023/01/13 07:15:20;;;;;;;1999.90;999.90;;;8.80;99.90;;;;;;5049191;28;20486;-67
2023/01/13 07:17:47;;;;;;;1999.90;999.90;;;8.80;99.90;;;;;;5050902;28;20433;-67
2023/01/13 07:20:14;;;;;;;1999.90;999.90;;;8.80;99.90;;;;;;5050852;28;20433;-68
2023/01/13 07:22:41;;;;;;;1999.90;999.90;;;8.80;99.90;;;;;;5049460;28;20433;-67
2023/01/13 07:25:09;;;;;;;1999.90;999.90;;;8.70;99.90;;;;;;5049250;28;20437;-69
2023/01/13 07:27:36;;;;;;;1999.90;999.90;;;8.70;99.90;;;;;;5048828;28;20987;-67
2023/01/13 07:30:03;;;;;;;1999.90;999.90;;;8.70;99.90;;;;;;5049786;28;20523;-68
2023/01/13 07:32:32;;;;;;;1999.90;999.90;;;8.70;99.90;;;;;;5049424;28;20487;-69
2023/01/13 07:35:03;;;;;;;1999.90;999.90;;;8.70;99.90;;;;;;5047172;28;20913;-70
2023/01/13 07:37:30;;;;;;;1999.90;999.90;;;8.70;99.90;;;;;;5047409;28;20460;-67
2023/01/13 07:39:58;;;;;;;1999.90;999.90;;;8.60;99.90;;;;;;5047892;28;20437;-71
2023/01/13 07:45:10;;;;;;;1999.90;999.90;;;8.60;99.90;;;;;;5048998;28;20579;-70
2023/01/13 07:47:36;;;;;;;1999.90;999.90;;;8.60;99.90;;;;;;5059499;28;20445;-69
2023/01/13 07:50:03;;;;;;;1999.90;999.90;;;8.50;99.90;;;;;;5049082;28;20471;-68
2023/01/13 07:52:30;;;;;;;1999.90;999.90;;;8.50;99.90;;;;;;5049783;28;20421;-70
2023/01/13 07:54:58;;;;;;;1999.90;999.90;;;8.60;99.90;;;;;;5048133;28;20483;-68
2023/01/13 07:57:25;;;;;;;1999.90;999.90;;;8.50;99.90;;;;;;5048960;28;20431;-68
2023/01/13 07:59:51;;;;;;;1999.90;999.90;;;8.60;99.90;;;;;;5048298;28;20490;-68
2023/01/13 08:02:18;;;;;;;1999.90;999.90;;;8.40;99.90;;;;;;5048610;28;20925;-69
2023/01/13 08:04:45;;;;;;;1999.90;999.90;;;8.50;99.90;;;;;;5044571;28;20800;-68
2023/01/13 08:07:11;;;;;;;1999.90;999.90;;;8.50;99.90;;;;;;5048650;28;20437;-69
2023/01/13 08:09:38;;;;;;;1999.90;999.90;;;8.60;99.90;;;;;;5049691;28;20429;-67
2023/01/13 08:14:52;;;;;;;1999.90;999.90;;;8.60;99.90;;;;;;5041658;28;20539;-68
2023/01/13 08:17:19;;;;;;;1999.90;999.90;;;8.60;99.90;;;;;;5048425;28;20436;-67
2023/01/13 08:19:46;;;;;;;1999.90;999.90;;;8.60;99.90;;;;;;5042647;28;20433;-67
2023/01/13 08:22:12;;;;;;;1999.90;999.90;;;8.70;99.90;;;;;;5047633;28;20908;-67
2023/01/13 08:24:39;;;;;;;1999.90;999.90;;;8.80;99.90;;;;;;5048830;28;20925;-67
2023/01/13 08:27:07;;;;;;;1999.90;999.90;;;8.80;99.90;;;;;;5053327;28;20954;-68
2023/01/13 08:29:34;;;;;;;1999.90;999.90;;;8.90;99.90;;;;;;5051796;28;20437;-68
2023/01/13 08:32:00;;;;;;;1999.90;999.90;;;9.10;99.90;;;;;;5052358;28;20479;-68
2023/01/13 08:34:27;;;;;;;1999.90;999.90;;;9.10;99.90;;;;;;5051131;28;20421;-68
2023/01/13 08:36:53;;;;;;;1999.90;999.90;;;9.10;99.90;;;;;;5051417;28;20505;-69
2023/01/13 08:39:20;;;;;;;1999.90;999.90;;;9.20;99.90;;;;;;5050549;28;20441;-67
2023/01/13 08:41:57;;;;;;;1999.90;999.90;;;9.30;99.90;;;;;;5048651;28;20514;-68
2023/01/13 08:44:26;;;;;;;1999.90;999.90;;;9.30;99.90;;;;;;5051812;28;20425;-68
2023/01/13 08:46:53;;;;;;;1999.90;999.90;;;9.40;99.90;;;;;;5050882;28;20774;-69
2023/01/13 08:49:20;;;;;;;1999.90;999.90;;;9.50;99.90;;;;;;5051545;28;20886;-69
2023/01/13 08:51:47;;;;;;;1999.90;999.90;;;9.50;99.90;;;;;;5052323;28;20428;-68
2023/01/13 08:54:14;;;;;;;1999.90;999.90;;;9.50;99.90;;;;;;5047225;28;20427;-67
2023/01/13 08:56:41;;;;;;;1999.90;999.90;;;9.50;99.90;;;;;;5050875;28;20439;-68
2023/01/13 08:59:10;;;;;;;1999.90;999.90;;;9.60;99.90;;;;;;5052057;28;20441;-67
2023/01/13 09:01:39;;;;;;;1999.90;999.90;;;9.70;99.90;;;;;;5049522;28;20437;-67
2023/01/13 09:04:07;;;;;;;1999.90;999.90;;;9.90;99.90;;;;;;5050755;28;20435;-67
2023/01/13 09:06:33;;;;;;;1999.90;999.90;;;9.90;99.90;;;;;;5051449;28;20449;-65
2023/01/13 09:09:01;;;;;;;1999.90;999.90;;;10.00;99.90;;;;;;5052493;28;20479;-68
2023/01/13 09:14:19;;;;;;;1999.90;999.90;;;10.20;99.90;;;;;;5045745;28;20446;-65
2023/01/13 09:16:47;;;;;;;1999.90;999.90;;;10.20;99.90;;;;;;5045958;28;20433;-67
2023/01/13 09:19:14;;;;;;;1999.90;999.90;;;10.20;99.90;;;;;;5053108;28;20985;-67
2023/01/13 09:21:41;;;;;;;1999.90;999.90;;;10.30;99.90;;;;;;5052471;28;20433;-67
2023/01/13 09:24:08;;;;;;;1999.90;999.90;;;10.40;99.90;;;;;;5051705;28;20516;-66
2023/01/13 09:26:36;;;;;;;1999.90;999.90;;;10.50;99.90;;;;;;5052047;28;20437;-64
2023/01/13 09:29:03;;;;;;;1999.90;999.90;;;10.40;99.90;;;;;;5058467;28;20483;-66
2023/01/13 09:31:33;;;;;;;1999.90;999.90;;;10.40;99.90;;;;;;5052948;28;20467;-65
2023/01/13 09:36:45;;;;;;;1999.90;999.90;;;10.50;99.90;;;;;;5050081;28;20487;-65
2023/01/13 09:39:11;;;;;;;1999.90;999.90;;;10.40;99.90;;;;;;5052609;28;20418;-65
2023/01/13 09:44:41;;;;;;;1999.90;999.90;;;10.40;99.90;;;;;;5052447;28;20459;-68
2023/01/13 09:47:17;;;;;;;1999.90;999.90;;;10.40;99.90;;;;;;5051474;28;20495;-67
2023/01/13 09:49:45;;;;;;;1999.90;999.90;;;10.30;99.90;;;;;;5044004;28;20448;-67
2023/01/13 09:52:15;;;;;;;1999.90;999.90;;;10.40;99.90;;;;;;5051994;28;20844;-68
2023/01/13 09:54:43;;;;;;;1999.90;999.90;;;10.40;99.90;;;;;;5052386;28;20414;-66
2023/01/13 09:57:12;;;;;;;1999.90;999.90;;;10.30;99.90;;;;;;5052294;28;20413;-64
2023/01/13 09:59:39;;;;;;;1999.90;999.90;;;10.30;99.90;;;;;;5051643;28;20433;-64
2023/01/13 10:02:31;;;;;;;1999.90;999.90;;;10.20;99.90;;;;;;5052081;28;20421;-69
2023/01/13 10:05:12;;;;;;;1999.90;999.90;;;10.20;99.90;;;;;;5051689;28;20457;-70
2023/01/13 10:07:46;;;;;;;1999.90;999.90;;;9.90;99.90;;;;;;5052096;28;20471;-65
2023/01/13 10:10:18;;;;;;;1999.90;999.90;;;10.00;99.90;;;;;;5052094;28;20413;-68
2023/01/13 10:15:32;;;;;;;1999.90;999.90;;;10.20;99.90;;;;;;5051952;28;20397;-68
2023/01/13 10:18:07;;;;;;;1999.90;999.90;;;10.10;99.90;;;;;;5049325;28;20429;-67
2023/01/13 10:20:40;;;;;;;1999.90;999.90;;;10.20;99.90;;;;;;5047201;28;20429;-68
2023/01/13 10:23:14;;;;;;;1999.90;999.90;;;10.20;99.90;;;;;;5048591;28;20432;-67
2023/01/13 10:25:52;;;;;;;1999.90;999.90;;;10.10;99.90;;;;;;5049005;28;20433;-68
2023/01/13 10:28:22;;;;;;;1999.90;999.90;;;10.20;99.90;;;;;;5047200;28;20433;-67
2023/01/13 10:30:49;;;;;;;1999.90;999.90;;;10.10;99.90;;;;;;5049779;28;20490;-68
2023/01/13 10:33:17;;;;;;;1999.90;999.90;;;10.20;99.90;;;;;;5051886;28;20413;-68
2023/01/13 10:35:58;;;;;;;1999.90;999.90;;;10.30;99.90;;;;;;5051414;28;20412;-65
2023/01/13 10:38:28;;;;;;;1999.90;999.90;;;10.40;99.90;;;;;;5051735;28;20416;-65
2023/01/13 10:40:57;;;;;;;1999.90;999.90;;;10.50;99.90;;;;;;5051790;28;20471;-67
2023/01/13 10:43:25;;;;;;;1999.90;999.90;;;10.50;99.90;;;;;;5050478;28;20433;-67
2023/01/13 10:45:57;;;;;;;1999.90;999.90;;;10.60;99.90;;;;;;5051165;28;20456;-66
2023/01/13 10:48:32;;;;;;;1999.90;999.90;;;10.60;99.90;;;;;;5050399;28;20504;-66
2023/01/13 10:51:10;;;;;;;1999.90;999.90;;;10.60;99.90;;;;;;5051289;28;20882;-66
2023/01/13 10:53:46;;;;;;;1999.90;999.90;;;10.60;99.90;;;;;;5050530;28;20467;-66
2023/01/13 10:56:17;;;;;;;1999.90;999.90;;;10.60;99.90;;;;;;5050777;28;20820;-66
2023/01/13 10:58:44;;;;;;;1999.90;999.90;;;10.50;99.90;;;;;;5031267;28;21096;-68
2023/01/13 11:01:25;;;;;;;1999.90;999.90;;;10.50;99.90;;;;;;5031211;28;20465;-69
2023/01/13 11:03:53;;;;;;;1999.90;999.90;;;10.40;99.90;;;;;;5030709;28;20896;-68
2023/01/13 11:06:24;;;;;;;1999.90;999.90;;;10.40;99.90;;;;;;5036867;28;20455;-66
2023/01/13 11:08:54;;;;;;;1999.90;999.90;;;10.50;99.90;;;;;;5050800;28;20421;-65
2023/01/13 11:11:37;;;;;;;1999.90;999.90;;;10.60;99.90;;;;;;5050886;28;20838;-66
2023/01/13 11:16:58;;;;;;;1999.90;999.90;;;10.60;99.90;;;;;;5050414;28;20396;-66
2023/01/13 11:19:30;;;;;;;1999.90;999.90;;;10.70;99.90;;;;;;5050115;28;20433;-66
2023/01/13 11:22:04;;;;;;;1999.90;999.90;;;10.70;99.90;;;;;;5050691;28;20417;-67
2023/01/13 11:24:37;;;;;;;1999.90;999.90;;;10.60;99.90;;;;;;5050382;28;20977;-66
2023/01/13 11:27:07;;;;;;;1999.90;999.90;;;10.70;99.90;;;;;;5050440;28;20413;-66
2023/01/13 11:29:39;;;;;;;1999.90;999.90;;;10.80;99.90;;;;;;5050120;28;20508;-63
2023/01/13 11:32:13;;;;;;;1999.90;999.90;;;10.80;99.90;;;;;;5049860;28;20437;-65
2023/01/13 11:34:41;;;;;;;1999.90;999.90;;;10.80;99.90;;;;;;5047906;28;20437;-69
2023/01/13 11:37:17;;;;;;;1999.90;999.90;;;10.70;99.90;;;;;;5047296;28;20437;-68
2023/01/13 11:39:52;;;;;;;1999.90;999.90;;;10.50;99.90;;;;;;5040809;28;20534;-68
2023/01/13 11:42:24;;;;;;;1999.90;999.90;;;10.50;99.90;;;;;;5046341;28;20433;-68
2023/01/13 11:45:01;;;;;;;1999.90;999.90;;;10.60;99.90;;;;;;5050436;28;20437;-66
2023/01/13 11:47:28;;;;;;;1999.90;999.90;;;10.60;99.90;;;;;;5050393;28;20463;-69
2023/01/13 11:49:55;;;;;;;1999.90;999.90;;;10.60;99.90;;;;;;5050952;28;20424;-66
2023/01/13 11:52:30;;;;;;;1999.90;999.90;;;10.70;99.90;;;;;;5049985;28;20613;-66
2023/01/13 11:55:24;;;;;;;1999.90;999.90;;;10.80;99.90;;;;;;5051476;28;20427;-68
2023/01/13 11:58:03;;;;;;;1999.90;999.90;;;10.60;99.90;;;;;;5048836;28;20504;-69
2023/01/13 12:01:05;;;;;;;1999.90;999.90;;;10.70;99.90;;;;;;5048125;28;20537;-67
2023/01/13 12:03:35;;;;;;;1999.90;999.90;;;10.70;99.90;;;;;;5041931;28;20497;-70
2023/01/13 12:06:16;;;;;;;1999.90;999.90;;;10.60;99.90;;;;;;5047707;28;20510;-67
2023/01/13 12:09:03;;;;;;;1999.90;999.90;;;10.60;99.90;;;;;;5038860;28;20490;-66
2023/01/13 12:12:18;;;;;;;1999.90;999.90;;;10.60;99.90;;;;;;5044501;28;20484;-68
2023/01/13 12:14:33;;;;;;;1999.90;999.90;;;10.70;99.90;;;;;;5039073;28;20952;-67
2023/01/13 12:17:02;;;;;;;1999.90;999.90;;;10.50;99.90;;;;;;5043234;28;20428;-68
2023/01/13 12:19:31;;;;;;;1999.90;999.90;;;10.50;99.90;;;;;;5044140;28;20441;-68
2023/01/13 12:22:10;;;;;;;1999.90;999.90;;;10.60;99.90;;;;;;5043920;28;20433;-65
2023/01/13 12:24:45;;;;;;;1999.90;999.90;;;10.70;99.90;;;;;;5049922;28;20445;-68
2023/01/13 12:27:16;;;;;;;1999.90;999.90;;;10.60;99.90;;;;;;5046585;28;20433;-65
2023/01/13 12:29:45;;;;;;;1999.90;999.90;;;10.60;99.90;;;;;;5043755;28;20459;-68
2023/01/13 12:32:17;;;;;;;1999.90;999.90;;;10.60;99.90;;;;;;5050865;28;20433;-72
2023/01/13 12:35:19;;;;;;;1999.90;999.90;;;10.70;99.90;;;;;;5045290;28;20495;-66
2023/01/13 12:37:53;;;;;;;1999.90;999.90;;;10.90;99.90;;;;;;5047704;28;20433;-68
2023/01/13 12:40:33;;;;;;;1999.90;999.90;;;11.10;99.90;;;;;;5045287;28;20436;-66
2023/01/13 12:46:34;;;;;;;1999.90;999.90;;;10.40;99.90;;;;;;5042936;28;20432;-67
2023/01/13 12:49:06;;;;;;;1999.90;999.90;;;10.10;99.90;;;;;;5045178;28;20763;-67
2023/01/13 12:51:34;;;;;;;1999.90;999.90;;;9.80;99.90;;;;;;5048076;28;20855;-70
2023/01/13 12:54:02;;;;;;;1999.90;999.90;;;9.70;99.90;;;;;;5044821;28;20429;-69
2023/01/13 12:56:40;;;;;;;1999.90;999.90;;;9.70;99.90;;;;;;5047222;28;20978;-67
2023/01/13 12:59:50;;;;;;;1999.90;999.90;;;10.20;99.90;;;;;;5048145;28;20962;-67
2023/01/13 13:02:37;;;;;;;1999.90;999.90;;;10.00;99.90;;;;;;5029764;28;20471;-68
2023/01/13 13:05:38;;;;;;;1999.90;999.90;;;9.90;99.90;;;;;;5041941;28;20836;-68
2023/01/13 13:08:13;;;;;;;1999.90;999.90;;;10.00;99.90;;;;;;5043809;28;20897;-66
2023/01/13 13:10:46;;;;;;;1999.90;999.90;;;10.10;99.90;;;;;;5049281;28;20884;-68